sensor_id;sensor_type;location;lat;lon;timestamp;P1;durP1;ratioP1;P2;durP2;ratioP2
68214;SDS011;55036;52.138;5.236;2023-01-28T00:00:49;9.15;;;5.80;;
68214;SDS011;55036;52.138;5.236;2023-01-28T00:03:16;10.38;;;5.22;;
68214;SDS011;55036;52.138;5.236;2023-01-28T00:05:43;7.00;;;5.30;;
68214;SDS011;55036;52.138;5.236;2023-01-28T00:08:09;7.25;;;5.03;;
68214;SDS011;55036;52.138;5.236;2023-01-28T00:10:39;6.82;;;5.22;;
68214;SDS011;55036;52.138;5.236;2023-01-28T00:13:08;7.55;;;5.43;;
68214;SDS011;55036;52.138;5.236;2023-01-28T00:15:39;7.25;;;5.22;;
68214;SDS011;55036;52.138;5.236;2023-01-28T00:18:06;8.32;;;5.65;;
68214;SDS011;55036;52.138;5.236;2023-01-28T00:20:33;7.10;;;5.32;;
68214;SDS011;55036;52.138;5.236;2023-01-28T00:23:00;7.43;;;5.43;;
68214;SDS011;55036;52.138;5.236;2023-01-28T00:25:27;6.82;;;5.00;;
68214;SDS011;55036;52.138;5.236;2023-01-28T00:27:54;7.22;;;5.38;;
68214;SDS011;55036;52.138;5.236;2023-01-28T00:30:21;8.63;;;5.75;;
68214;SDS011;55036;52.138;5.236;2023-01-28T00:32:48;7.47;;;5.38;;
68214;SDS011;55036;52.138;5.236;2023-01-28T00:35:15;8.43;;;5.72;;
68214;SDS011;55036;52.138;5.236;2023-01-28T00:37:44;9.13;;;5.60;;
68214;SDS011;55036;52.138;5.236;2023-01-28T00:40:11;8.27;;;5.95;;
68214;SDS011;55036;52.138;5.236;2023-01-28T00:42:38;7.20;;;5.25;;
68214;SDS011;55036;52.138;5.236;2023-01-28T00:45:05;8.68;;;6.35;;
68214;SDS011;55036;52.138;5.236;2023-01-28T00:47:32;8.73;;;6.03;;
68214;SDS011;55036;52.138;5.236;2023-01-28T00:49:59;7.85;;;5.82;;
68214;SDS011;55036;52.138;5.236;2023-01-28T00:52:25;8.68;;;6.15;;
68214;SDS011;55036;52.138;5.236;2023-01-28T00:54:52;8.43;;;5.85;;
68214;SDS011;55036;52.138;5.236;2023-01-28T00:57:19;9.30;;;6.00;;
68214;SDS011;55036;52.138;5.236;2023-01-28T00:59:46;8.48;;;5.65;;
68214;SDS011;55036;52.138;5.236;2023-01-28T01:02:13;8.05;;;5.80;;
68214;SDS011;55036;52.138;5.236;2023-01-28T01:04:40;8.13;;;5.82;;
68214;SDS011;55036;52.138;5.236;2023-01-28T01:07:06;7.07;;;5.60;;
68214;SDS011;55036;52.138;5.236;2023-01-28T01:09:33;8.05;;;5.93;;
68214;SDS011;55036;52.138;5.236;2023-01-28T01:12:00;8.18;;;5.75;;
68214;SDS011;55036;52.138;5.236;2023-01-28T01:14:27;8.95;;;6.57;;
68214;SDS011;55036;52.138;5.236;2023-01-28T01:16:53;8.18;;;6.13;;
68214;SDS011;55036;52.138;5.236;2023-01-28T01:19:21;7.00;;;5.32;;
68214;SDS011;55036;52.138;5.236;2023-01-28T01:21:48;9.20;;;6.32;;
68214;SDS011;55036;52.138;5.236;2023-01-28T01:24:16;7.68;;;5.35;;
68214;SDS011;55036;52.138;5.236;2023-01-28T01:26:43;8.38;;;5.85;;
68214;SDS011;55036;52.138;5.236;2023-01-28T01:29:10;7.80;;;5.50;;
68214;SDS011;55036;52.138;5.236;2023-01-28T01:31:37;7.90;;;5.30;;
68214;SDS011;55036;52.138;5.236;2023-01-28T01:34:04;8.50;;;5.93;;
68214;SDS011;55036;52.138;5.236;2023-01-28T01:36:30;8.00;;;6.18;;
68214;SDS011;55036;52.138;5.236;2023-01-28T01:38:57;9.68;;;6.18;;
68214;SDS011;55036;52.138;5.236;2023-01-28T01:41:33;7.47;;;5.68;;
68214;SDS011;55036;52.138;5.236;2023-01-28T01:44:00;8.05;;;5.70;;
68214;SDS011;55036;52.138;5.236;2023-01-28T01:46:50;9.15;;;5.85;;
68214;SDS011;55036;52.138;5.236;2023-01-28T01:49:23;8.15;;;5.80;;
68214;SDS011;55036;52.138;5.236;2023-01-28T01:51:56;8.50;;;5.97;;
68214;SDS011;55036;52.138;5.236;2023-01-28T01:54:28;7.40;;;5.53;;
68214;SDS011;55036;52.138;5.236;2023-01-28T01:56:57;9.13;;;6.07;;
68214;SDS011;55036;52.138;5.236;2023-01-28T01:59:30;9.07;;;5.60;;
68214;SDS011;55036;52.138;5.236;2023-01-28T02:02:02;7.50;;;5.60;;
68214;SDS011;55036;52.138;5.236;2023-01-28T02:04:33;9.32;;;5.72;;
68214;SDS011;55036;52.138;5.236;2023-01-28T02:07:03;7.60;;;5.90;;
68214;SDS011;55036;52.138;5.236;2023-01-28T02:09:32;10.65;;;6.07;;
68214;SDS011;55036;52.138;5.236;2023-01-28T02:12:08;9.13;;;5.65;;
68214;SDS011;55036;52.138;5.236;2023-01-28T02:19:51;9.55;;;6.78;;
68214;SDS011;55036;52.138;5.236;2023-01-28T02:34:02;8.38;;;5.53;;
68214;SDS011;55036;52.138;5.236;2023-01-28T02:36:51;10.25;;;6.13;;
68214;SDS011;55036;52.138;5.236;2023-01-28T02:39:20;9.63;;;6.07;;
68214;SDS011;55036;52.138;5.236;2023-01-28T02:41:58;7.67;;;5.73;;
68214;SDS011;55036;52.138;5.236;2023-01-28T02:44:31;8.97;;;6.03;;
68214;SDS011;55036;52.138;5.236;2023-01-28T02:46:58;8.20;;;6.25;;
68214;SDS011;55036;52.138;5.236;2023-01-28T02:49:45;8.60;;;5.47;;
68214;SDS011;55036;52.138;5.236;2023-01-28T02:52:21;8.75;;;6.15;;
68214;SDS011;55036;52.138;5.236;2023-01-28T02:55:19;11.27;;;6.38;;
68214;SDS011;55036;52.138;5.236;2023-01-28T03:00:53;9.48;;;6.00;;
68214;SDS011;55036;52.138;5.236;2023-01-28T03:03:35;8.23;;;5.80;;
68214;SDS011;55036;52.138;5.236;2023-01-28T03:06:08;8.65;;;5.40;;
68214;SDS011;55036;52.138;5.236;2023-01-28T03:11:39;7.85;;;5.85;;
68214;SDS011;55036;52.138;5.236;2023-01-28T03:14:27;8.25;;;5.72;;
68214;SDS011;55036;52.138;5.236;2023-01-28T03:17:32;8.00;;;5.45;;
68214;SDS011;55036;52.138;5.236;2023-01-28T03:23:21;8.38;;;5.53;;
68214;SDS011;55036;52.138;5.236;2023-01-28T03:26:13;7.97;;;5.18;;
68214;SDS011;55036;52.138;5.236;2023-01-28T03:29:01;7.57;;;5.07;;
68214;SDS011;55036;52.138;5.236;2023-01-28T03:31:53;9.63;;;5.68;;
68214;SDS011;55036;52.138;5.236;2023-01-28T03:34:39;8.88;;;6.63;;
68214;SDS011;55036;52.138;5.236;2023-01-28T03:37:24;7.78;;;5.45;;
68214;SDS011;55036;52.138;5.236;2023-01-28T03:39:53;8.98;;;6.03;;
68214;SDS011;55036;52.138;5.236;2023-01-28T03:42:23;8.63;;;6.07;;
68214;SDS011;55036;52.138;5.236;2023-01-28T03:44:49;9.52;;;6.18;;
68214;SDS011;55036;52.138;5.236;2023-01-28T03:47:23;10.00;;;6.35;;
68214;SDS011;55036;52.138;5.236;2023-01-28T03:49:52;8.68;;;6.28;;
68214;SDS011;55036;52.138;5.236;2023-01-28T03:52:27;8.63;;;6.30;;
68214;SDS011;55036;52.138;5.236;2023-01-28T03:54:57;10.57;;;6.47;;
68214;SDS011;55036;52.138;5.236;2023-01-28T03:57:25;9.63;;;5.88;;
68214;SDS011;55036;52.138;5.236;2023-01-28T03:59:52;8.85;;;5.93;;
68214;SDS011;55036;52.138;5.236;2023-01-28T04:02:20;9.20;;;6.35;;
68214;SDS011;55036;52.138;5.236;2023-01-28T04:04:47;8.77;;;5.95;;
68214;SDS011;55036;52.138;5.236;2023-01-28T04:07:15;9.32;;;6.38;;
68214;SDS011;55036;52.138;5.236;2023-01-28T04:09:42;9.55;;;6.72;;
68214;SDS011;55036;52.138;5.236;2023-01-28T04:12:09;11.00;;;6.70;;
68214;SDS011;55036;52.138;5.236;2023-01-28T04:14:36;9.73;;;6.15;;
68214;SDS011;55036;52.138;5.236;2023-01-28T04:17:05;8.63;;;5.97;;
68214;SDS011;55036;52.138;5.236;2023-01-28T04:19:33;9.30;;;6.82;;
68214;SDS011;55036;52.138;5.236;2023-01-28T04:22:06;10.75;;;6.88;;
68214;SDS011;55036;52.138;5.236;2023-01-28T04:24:35;9.13;;;5.65;;
68214;SDS011;55036;52.138;5.236;2023-01-28T04:27:02;9.55;;;6.75;;
68214;SDS011;55036;52.138;5.236;2023-01-28T04:29:28;8.27;;;6.05;;
68214;SDS011;55036;52.138;5.236;2023-01-28T04:31:56;9.20;;;6.47;;
68214;SDS011;55036;52.138;5.236;2023-01-28T04:34:23;9.15;;;5.55;;
68214;SDS011;55036;52.138;5.236;2023-01-28T04:36:49;8.52;;;5.85;;
68214;SDS011;55036;52.138;5.236;2023-01-28T04:39:16;9.05;;;6.10;;
68214;SDS011;55036;52.138;5.236;2023-01-28T04:41:43;8.98;;;6.13;;
68214;SDS011;55036;52.138;5.236;2023-01-28T04:44:10;9.90;;;5.90;;
68214;SDS011;55036;52.138;5.236;2023-01-28T04:46:36;8.65;;;5.30;;
68214;SDS011;55036;52.138;5.236;2023-01-28T04:49:03;8.05;;;5.75;;
68214;SDS011;55036;52.138;5.236;2023-01-28T04:51:30;11.20;;;6.45;;
68214;SDS011;55036;52.138;5.236;2023-01-28T04:53:56;8.60;;;5.55;;
68214;SDS011;55036;52.138;5.236;2023-01-28T04:56:23;8.50;;;6.15;;
68214;SDS011;55036;52.138;5.236;2023-01-28T04:58:50;8.27;;;6.18;;
68214;SDS011;55036;52.138;5.236;2023-01-28T05:01:16;9.25;;;6.22;;
68214;SDS011;55036;52.138;5.236;2023-01-28T05:03:43;9.23;;;6.40;;
68214;SDS011;55036;52.138;5.236;2023-01-28T05:06:10;8.65;;;6.20;;
68214;SDS011;55036;52.138;5.236;2023-01-28T05:08:36;9.40;;;6.20;;
68214;SDS011;55036;52.138;5.236;2023-01-28T05:11:03;8.52;;;5.93;;
68214;SDS011;55036;52.138;5.236;2023-01-28T05:13:30;10.07;;;6.30;;
68214;SDS011;55036;52.138;5.236;2023-01-28T05:15:57;7.80;;;5.70;;
68214;SDS011;55036;52.138;5.236;2023-01-28T05:18:24;8.52;;;6.13;;
68214;SDS011;55036;52.138;5.236;2023-01-28T05:20:50;8.75;;;5.70;;
68214;SDS011;55036;52.138;5.236;2023-01-28T05:23:17;7.95;;;5.78;;
68214;SDS011;55036;52.138;5.236;2023-01-28T05:25:44;6.90;;;5.18;;
68214;SDS011;55036;52.138;5.236;2023-01-28T05:28:10;7.45;;;5.40;;
68214;SDS011;55036;52.138;5.236;2023-01-28T05:30:37;8.60;;;5.65;;
68214;SDS011;55036;52.138;5.236;2023-01-28T05:33:04;9.25;;;6.57;;
68214;SDS011;55036;52.138;5.236;2023-01-28T05:35:31;9.43;;;6.07;;
68214;SDS011;55036;52.138;5.236;2023-01-28T05:37:58;7.50;;;5.65;;
68214;SDS011;55036;52.138;5.236;2023-01-28T05:40:24;8.25;;;5.75;;
68214;SDS011;55036;52.138;5.236;2023-01-28T05:42:51;9.20;;;6.10;;
68214;SDS011;55036;52.138;5.236;2023-01-28T05:45:18;8.95;;;6.32;;
68214;SDS011;55036;52.138;5.236;2023-01-28T05:47:44;8.82;;;5.85;;
68214;SDS011;55036;52.138;5.236;2023-01-28T05:50:11;7.18;;;5.47;;
68214;SDS011;55036;52.138;5.236;2023-01-28T05:52:39;8.65;;;5.95;;
68214;SDS011;55036;52.138;5.236;2023-01-28T05:55:06;9.77;;;6.55;;
68214;SDS011;55036;52.138;5.236;2023-01-28T05:57:34;8.60;;;6.13;;
68214;SDS011;55036;52.138;5.236;2023-01-28T06:00:00;9.98;;;6.75;;
68214;SDS011;55036;52.138;5.236;2023-01-28T06:02:27;8.65;;;6.40;;
68214;SDS011;55036;52.138;5.236;2023-01-28T06:04:54;9.20;;;6.22;;
68214;SDS011;55036;52.138;5.236;2023-01-28T06:07:21;9.70;;;6.80;;
68214;SDS011;55036;52.138;5.236;2023-01-28T06:09:49;9.77;;;7.13;;
68214;SDS011;55036;52.138;5.236;2023-01-28T06:12:15;9.10;;;6.68;;
68214;SDS011;55036;52.138;5.236;2023-01-28T06:14:42;11.95;;;6.63;;
68214;SDS011;55036;52.138;5.236;2023-01-28T06:17:09;9.50;;;7.03;;
68214;SDS011;55036;52.138;5.236;2023-01-28T06:19:35;10.57;;;7.38;;
68214;SDS011;55036;52.138;5.236;2023-01-28T06:22:02;9.15;;;6.40;;
68214;SDS011;55036;52.138;5.236;2023-01-28T06:24:29;9.40;;;7.30;;
68214;SDS011;55036;52.138;5.236;2023-01-28T06:26:55;10.77;;;7.55;;
68214;SDS011;55036;52.138;5.236;2023-01-28T06:29:22;10.48;;;7.20;;
68214;SDS011;55036;52.138;5.236;2023-01-28T06:31:49;12.40;;;7.97;;
68214;SDS011;55036;52.138;5.236;2023-01-28T06:34:16;12.13;;;7.05;;
68214;SDS011;55036;52.138;5.236;2023-01-28T06:36:43;9.77;;;7.25;;
68214;SDS011;55036;52.138;5.236;2023-01-28T06:39:09;11.20;;;7.65;;
68214;SDS011;55036;52.138;5.236;2023-01-28T06:41:36;10.82;;;7.55;;
68214;SDS011;55036;52.138;5.236;2023-01-28T06:44:03;12.73;;;7.85;;
68214;SDS011;55036;52.138;5.236;2023-01-28T06:46:29;10.35;;;7.32;;
68214;SDS011;55036;52.138;5.236;2023-01-28T06:48:56;9.68;;;7.05;;
68214;SDS011;55036;52.138;5.236;2023-01-28T06:51:23;9.18;;;6.88;;
68214;SDS011;55036;52.138;5.236;2023-01-28T06:53:49;10.82;;;6.97;;
68214;SDS011;55036;52.138;5.236;2023-01-28T06:56:16;12.00;;;7.80;;
68214;SDS011;55036;52.138;5.236;2023-01-28T06:58:43;10.45;;;7.05;;
68214;SDS011;55036;52.138;5.236;2023-01-28T07:01:09;12.15;;;7.60;;
68214;SDS011;55036;52.138;5.236;2023-01-28T07:03:36;10.45;;;7.20;;
68214;SDS011;55036;52.138;5.236;2023-01-28T07:06:03;12.65;;;8.65;;
68214;SDS011;55036;52.138;5.236;2023-01-28T07:08:30;11.55;;;7.68;;
68214;SDS011;55036;52.138;5.236;2023-01-28T07:10:57;13.00;;;7.90;;
68214;SDS011;55036;52.138;5.236;2023-01-28T07:13:25;10.75;;;7.88;;
68214;SDS011;55036;52.138;5.236;2023-01-28T07:15:52;14.43;;;8.18;;
68214;SDS011;55036;52.138;5.236;2023-01-28T07:18:19;11.05;;;7.70;;
68214;SDS011;55036;52.138;5.236;2023-01-28T07:20:45;9.45;;;7.07;;
68214;SDS011;55036;52.138;5.236;2023-01-28T07:23:12;10.00;;;6.97;;
68214;SDS011;55036;52.138;5.236;2023-01-28T07:25:39;11.48;;;8.02;;
68214;SDS011;55036;52.138;5.236;2023-01-28T07:28:05;12.63;;;7.68;;
68214;SDS011;55036;52.138;5.236;2023-01-28T07:30:32;13.25;;;8.23;;
68214;SDS011;55036;52.138;5.236;2023-01-28T07:32:59;10.00;;;7.20;;
68214;SDS011;55036;52.138;5.236;2023-01-28T07:35:26;11.30;;;7.57;;
68214;SDS011;55036;52.138;5.236;2023-01-28T07:37:54;8.95;;;6.53;;
68214;SDS011;55036;52.138;5.236;2023-01-28T07:40:22;8.68;;;6.40;;
68214;SDS011;55036;52.138;5.236;2023-01-28T07:42:50;10.43;;;7.03;;
68214;SDS011;55036;52.138;5.236;2023-01-28T07:45:18;8.73;;;5.88;;
68214;SDS011;55036;52.138;5.236;2023-01-28T07:47:51;10.25;;;5.97;;
68214;SDS011;55036;52.138;5.236;2023-01-28T07:50:21;12.43;;;6.88;;
68214;SDS011;55036;52.138;5.236;2023-01-28T07:52:48;8.63;;;6.53;;
68214;SDS011;55036;52.138;5.236;2023-01-28T07:55:15;10.25;;;6.85;;
68214;SDS011;55036;52.138;5.236;2023-01-28T08:00:15;8.15;;;5.75;;
68214;SDS011;55036;52.138;5.236;2023-01-28T08:02:42;10.43;;;4.60;;
68214;SDS011;55036;52.138;5.236;2023-01-28T08:05:16;8.77;;;5.00;;
68214;SDS011;55036;52.138;5.236;2023-01-28T08:07:45;8.77;;;5.03;;
68214;SDS011;55036;52.138;5.236;2023-01-28T08:10:16;8.80;;;5.20;;
68214;SDS011;55036;52.138;5.236;2023-01-28T08:12:53;10.15;;;5.18;;
68214;SDS011;55036;52.138;5.236;2023-01-28T08:15:21;7.70;;;5.25;;
68214;SDS011;55036;52.138;5.236;2023-01-28T08:17:48;8.18;;;5.20;;
68214;SDS011;55036;52.138;5.236;2023-01-28T08:20:15;8.05;;;4.68;;
68214;SDS011;55036;52.138;5.236;2023-01-28T08:22:43;7.93;;;5.30;;
68214;SDS011;55036;52.138;5.236;2023-01-28T08:25:09;6.80;;;4.72;;
68214;SDS011;55036;52.138;5.236;2023-01-28T08:27:36;7.03;;;4.47;;
68214;SDS011;55036;52.138;5.236;2023-01-28T08:30:03;8.52;;;4.65;;
68214;SDS011;55036;52.138;5.236;2023-01-28T08:32:30;9.80;;;5.30;;
68214;SDS011;55036;52.138;5.236;2023-01-28T08:34:58;7.63;;;5.00;;
68214;SDS011;55036;52.138;5.236;2023-01-28T08:37:24;6.78;;;4.65;;
68214;SDS011;55036;52.138;5.236;2023-01-28T08:39:51;7.55;;;5.20;;
68214;SDS011;55036;52.138;5.236;2023-01-28T08:42:18;7.10;;;4.78;;
68214;SDS011;55036;52.138;5.236;2023-01-28T08:44:45;8.32;;;5.03;;
68214;SDS011;55036;52.138;5.236;2023-01-28T08:47:13;8.55;;;5.68;;
68214;SDS011;55036;52.138;5.236;2023-01-28T08:49:40;6.82;;;5.00;;
68214;SDS011;55036;52.138;5.236;2023-01-28T08:52:06;8.63;;;5.05;;
68214;SDS011;55036;52.138;5.236;2023-01-28T08:54:33;8.10;;;5.35;;
68214;SDS011;55036;52.138;5.236;2023-01-28T08:57:01;8.00;;;5.28;;
68214;SDS011;55036;52.138;5.236;2023-01-28T08:59:29;7.60;;;5.10;;
68214;SDS011;55036;52.138;5.236;2023-01-28T09:01:55;7.82;;;5.60;;
68214;SDS011;55036;52.138;5.236;2023-01-28T09:04:22;9.27;;;4.88;;
68214;SDS011;55036;52.138;5.236;2023-01-28T09:06:49;8.00;;;5.43;;
68214;SDS011;55036;52.138;5.236;2023-01-28T09:09:15;7.82;;;5.55;;
68214;SDS011;55036;52.138;5.236;2023-01-28T09:11:42;9.48;;;5.68;;
68214;SDS011;55036;52.138;5.236;2023-01-28T09:14:09;7.97;;;5.72;;
68214;SDS011;55036;52.138;5.236;2023-01-28T09:16:35;10.90;;;5.30;;
68214;SDS011;55036;52.138;5.236;2023-01-28T09:19:02;12.20;;;5.90;;
68214;SDS011;55036;52.138;5.236;2023-01-28T09:21:28;8.07;;;5.55;;
68214;SDS011;55036;52.138;5.236;2023-01-28T09:23:55;10.48;;;5.95;;
68214;SDS011;55036;52.138;5.236;2023-01-28T09:26:23;8.90;;;5.32;;
68214;SDS011;55036;52.138;5.236;2023-01-28T09:28:50;11.32;;;5.70;;
68214;SDS011;55036;52.138;5.236;2023-01-28T09:31:16;6.85;;;5.25;;
68214;SDS011;55036;52.138;5.236;2023-01-28T09:33:43;8.07;;;5.72;;
68214;SDS011;55036;52.138;5.236;2023-01-28T09:36:12;7.15;;;5.18;;
68214;SDS011;55036;52.138;5.236;2023-01-28T09:38:38;8.48;;;5.90;;
68214;SDS011;55036;52.138;5.236;2023-01-28T09:41:14;7.80;;;5.32;;
68214;SDS011;55036;52.138;5.236;2023-01-28T09:46:31;8.85;;;6.32;;
68214;SDS011;55036;52.138;5.236;2023-01-28T09:49:01;8.10;;;5.22;;
68214;SDS011;55036;52.138;5.236;2023-01-28T09:51:37;9.68;;;5.75;;
68214;SDS011;55036;52.138;5.236;2023-01-28T09:54:20;8.40;;;5.00;;
68214;SDS011;55036;52.138;5.236;2023-01-28T09:57:00;7.88;;;5.57;;
68214;SDS011;55036;52.138;5.236;2023-01-28T09:59:48;5.95;;;4.32;;
68214;SDS011;55036;52.138;5.236;2023-01-28T10:02:26;5.88;;;3.85;;
68214;SDS011;55036;52.138;5.236;2023-01-28T10:05:25;6.93;;;4.10;;
68214;SDS011;55036;52.138;5.236;2023-01-28T10:22:26;3.83;;;2.50;;
68214;SDS011;55036;52.138;5.236;2023-01-28T10:24:57;4.15;;;2.58;;
68214;SDS011;55036;52.138;5.236;2023-01-28T10:27:32;4.07;;;2.33;;
68214;SDS011;55036;52.138;5.236;2023-01-28T10:30:22;4.03;;;3.00;;
68214;SDS011;55036;52.138;5.236;2023-01-28T10:32:52;4.38;;;2.65;;
68214;SDS011;55036;52.138;5.236;2023-01-28T10:35:24;6.00;;;2.90;;
68214;SDS011;55036;52.138;5.236;2023-01-28T10:37:52;5.13;;;3.10;;
68214;SDS011;55036;52.138;5.236;2023-01-28T10:40:26;6.40;;;3.20;;
68214;SDS011;55036;52.138;5.236;2023-01-28T10:42:53;4.65;;;2.78;;
68214;SDS011;55036;52.138;5.236;2023-01-28T10:45:22;4.53;;;3.00;;
68214;SDS011;55036;52.138;5.236;2023-01-28T10:48:07;6.68;;;3.33;;
68214;SDS011;55036;52.138;5.236;2023-01-28T10:50:52;5.55;;;2.75;;
68214;SDS011;55036;52.138;5.236;2023-01-28T10:53:41;5.65;;;3.03;;
68214;SDS011;55036;52.138;5.236;2023-01-28T10:56:23;4.10;;;2.55;;
68214;SDS011;55036;52.138;5.236;2023-01-28T10:58:55;7.57;;;3.53;;
68214;SDS011;55036;52.138;5.236;2023-01-28T11:01:40;4.47;;;2.50;;
68214;SDS011;55036;52.138;5.236;2023-01-28T11:04:17;4.80;;;2.53;;
68214;SDS011;55036;52.138;5.236;2023-01-28T11:07:01;4.35;;;2.55;;
68214;SDS011;55036;52.138;5.236;2023-01-28T11:09:32;4.05;;;2.65;;
68214;SDS011;55036;52.138;5.236;2023-01-28T11:12:10;5.05;;;2.42;;
68214;SDS011;55036;52.138;5.236;2023-01-28T11:14:48;4.68;;;2.42;;
68214;SDS011;55036;52.138;5.236;2023-01-28T11:17:33;4.60;;;2.13;;
68214;SDS011;55036;52.138;5.236;2023-01-28T11:20:12;3.95;;;2.05;;
68214;SDS011;55036;52.138;5.236;2023-01-28T11:22:45;4.00;;;2.05;;
68214;SDS011;55036;52.138;5.236;2023-01-28T11:25:18;3.20;;;2.05;;
68214;SDS011;55036;52.138;5.236;2023-01-28T11:27:46;3.70;;;2.10;;
68214;SDS011;55036;52.138;5.236;2023-01-28T11:30:18;4.70;;;2.80;;
68214;SDS011;55036;52.138;5.236;2023-01-28T11:32:53;4.75;;;2.33;;
68214;SDS011;55036;52.138;5.236;2023-01-28T11:35:56;3.45;;;2.35;;
68214;SDS011;55036;52.138;5.236;2023-01-28T11:38:29;3.88;;;2.33;;
68214;SDS011;55036;52.138;5.236;2023-01-28T11:40:57;4.68;;;2.13;;
68214;SDS011;55036;52.138;5.236;2023-01-28T11:43:27;3.80;;;2.38;;
68214;SDS011;55036;52.138;5.236;2023-01-28T11:46:16;5.50;;;2.33;;
68214;SDS011;55036;52.138;5.236;2023-01-28T11:51:29;5.60;;;2.03;;
68214;SDS011;55036;52.138;5.236;2023-01-28T12:05:39;5.90;;;1.65;;
68214;SDS011;55036;52.138;5.236;2023-01-28T12:08:33;3.92;;;2.25;;
68214;SDS011;55036;52.138;5.236;2023-01-28T12:11:07;3.17;;;2.03;;
68214;SDS011;55036;52.138;5.236;2023-01-28T12:19:32;3.80;;;2.47;;
68214;SDS011;55036;52.138;5.236;2023-01-28T12:38:55;3.95;;;2.15;;
68214;SDS011;55036;52.138;5.236;2023-01-28T12:44:40;5.78;;;2.40;;
68214;SDS011;55036;52.138;5.236;2023-01-28T12:47:15;2.97;;;2.15;;
68214;SDS011;55036;52.138;5.236;2023-01-28T12:49:49;4.30;;;2.38;;
68214;SDS011;55036;52.138;5.236;2023-01-28T12:52:31;4.13;;;2.45;;
68214;SDS011;55036;52.138;5.236;2023-01-28T12:55:13;3.83;;;2.10;;
68214;SDS011;55036;52.138;5.236;2023-01-28T12:57:40;5.20;;;2.30;;
68214;SDS011;55036;52.138;5.236;2023-01-28T13:03:04;7.00;;;2.60;;
68214;SDS011;55036;52.138;5.236;2023-01-28T13:06:04;6.30;;;2.45;;
68214;SDS011;55036;52.138;5.236;2023-01-28T13:08:40;4.00;;;2.13;;
68214;SDS011;55036;52.138;5.236;2023-01-28T13:11:09;3.15;;;1.80;;
68214;SDS011;55036;52.138;5.236;2023-01-28T13:13:40;3.65;;;2.42;;
68214;SDS011;55036;52.138;5.236;2023-01-28T13:16:10;4.68;;;2.40;;
68214;SDS011;55036;52.138;5.236;2023-01-28T13:18:44;4.25;;;2.33;;
68214;SDS011;55036;52.138;5.236;2023-01-28T13:21:16;4.65;;;2.05;;
68214;SDS011;55036;52.138;5.236;2023-01-28T13:26:43;3.22;;;1.92;;
68214;SDS011;55036;52.138;5.236;2023-01-28T13:31:41;5.65;;;2.40;;
68214;SDS011;55036;52.138;5.236;2023-01-28T13:39:31;4.30;;;2.38;;
68214;SDS011;55036;52.138;5.236;2023-01-28T13:42:08;5.78;;;2.22;;
68214;SDS011;55036;52.138;5.236;2023-01-28T13:44:49;3.53;;;2.40;;
68214;SDS011;55036;52.138;5.236;2023-01-28T13:47:30;4.22;;;2.47;;
68214;SDS011;55036;52.138;5.236;2023-01-28T13:50:00;3.67;;;2.10;;
68214;SDS011;55036;52.138;5.236;2023-01-28T13:52:31;3.63;;;1.98;;
68214;SDS011;55036;52.138;5.236;2023-01-28T13:55:20;6.38;;;2.15;;
68214;SDS011;55036;52.138;5.236;2023-01-28T14:06:33;4.28;;;2.30;;
68214;SDS011;55036;52.138;5.236;2023-01-28T14:15:18;2.70;;;2.00;;
68214;SDS011;55036;52.138;5.236;2023-01-28T14:17:55;3.60;;;1.98;;
68214;SDS011;55036;52.138;5.236;2023-01-28T14:20:33;5.90;;;2.17;;
68214;SDS011;55036;52.138;5.236;2023-01-28T14:23:27;5.28;;;2.58;;
68214;SDS011;55036;52.138;5.236;2023-01-28T14:26:00;3.60;;;2.05;;
68214;SDS011;55036;52.138;5.236;2023-01-28T14:28:47;4.07;;;2.00;;
68214;SDS011;55036;52.138;5.236;2023-01-28T14:34:04;5.18;;;2.15;;
68214;SDS011;55036;52.138;5.236;2023-01-28T14:36:52;5.00;;;2.00;;
68214;SDS011;55036;52.138;5.236;2023-01-28T14:39:24;4.05;;;1.98;;
68214;SDS011;55036;52.138;5.236;2023-01-28T14:41:53;3.47;;;1.90;;
68214;SDS011;55036;52.138;5.236;2023-01-28T14:44:27;4.70;;;2.30;;
68214;SDS011;55036;52.138;5.236;2023-01-28T14:47:12;6.47;;;2.50;;
68214;SDS011;55036;52.138;5.236;2023-01-28T14:50:02;3.50;;;2.20;;
68214;SDS011;55036;52.138;5.236;2023-01-28T14:52:55;7.53;;;3.88;;
68214;SDS011;55036;52.138;5.236;2023-01-28T14:55:52;6.47;;;2.95;;
68214;SDS011;55036;52.138;5.236;2023-01-28T14:58:22;3.67;;;2.30;;
68214;SDS011;55036;52.138;5.236;2023-01-28T15:00:55;6.45;;;3.95;;
68214;SDS011;55036;52.138;5.236;2023-01-28T15:03:27;7.45;;;4.90;;
68214;SDS011;55036;52.138;5.236;2023-01-28T15:06:15;3.67;;;2.13;;
68214;SDS011;55036;52.138;5.236;2023-01-28T15:08:45;5.43;;;2.67;;
68214;SDS011;55036;52.138;5.236;2023-01-28T15:11:13;7.32;;;2.60;;
68214;SDS011;55036;52.138;5.236;2023-01-28T15:13:46;4.03;;;2.42;;
68214;SDS011;55036;52.138;5.236;2023-01-28T15:16:23;5.05;;;2.47;;
68214;SDS011;55036;52.138;5.236;2023-01-28T15:18:54;9.15;;;5.10;;
68214;SDS011;55036;52.138;5.236;2023-01-28T15:21:22;5.47;;;4.63;;
68214;SDS011;55036;52.138;5.236;2023-01-28T15:23:58;4.20;;;3.25;;
68214;SDS011;55036;52.138;5.236;2023-01-28T15:26:26;8.15;;;3.20;;
68214;SDS011;55036;52.138;5.236;2023-01-28T15:28:58;4.65;;;3.08;;
68214;SDS011;55036;52.138;5.236;2023-01-28T15:34:12;4.55;;;3.10;;
68214;SDS011;55036;52.138;5.236;2023-01-28T15:36:41;7.47;;;3.15;;
68214;SDS011;55036;52.138;5.236;2023-01-28T15:39:21;5.78;;;3.20;;
68214;SDS011;55036;52.138;5.236;2023-01-28T15:42:02;7.63;;;3.20;;
68214;SDS011;55036;52.138;5.236;2023-01-28T15:46:59;6.95;;;3.00;;
68214;SDS011;55036;52.138;5.236;2023-01-28T15:49:28;6.78;;;3.00;;
68214;SDS011;55036;52.138;5.236;2023-01-28T15:51:59;6.53;;;3.90;;
68214;SDS011;55036;52.138;5.236;2023-01-28T15:54:26;12.40;;;7.75;;
68214;SDS011;55036;52.138;5.236;2023-01-28T15:56:55;17.45;;;10.55;;
68214;SDS011;55036;52.138;5.236;2023-01-28T15:59:26;24.50;;;13.48;;
68214;SDS011;55036;52.138;5.236;2023-01-28T16:02:11;13.93;;;6.90;;
68214;SDS011;55036;52.138;5.236;2023-01-28T16:04:58;13.80;;;7.25;;
68214;SDS011;55036;52.138;5.236;2023-01-28T16:07:41;8.38;;;3.80;;
68214;SDS011;55036;52.138;5.236;2023-01-28T16:10:18;8.95;;;4.22;;
68214;SDS011;55036;52.138;5.236;2023-01-28T16:12:48;7.55;;;4.60;;
68214;SDS011;55036;52.138;5.236;2023-01-28T16:15:20;8.00;;;4.90;;
68214;SDS011;55036;52.138;5.236;2023-01-28T16:17:48;8.95;;;4.55;;
68214;SDS011;55036;52.138;5.236;2023-01-28T16:20:34;8.63;;;4.07;;
68214;SDS011;55036;52.138;5.236;2023-01-28T16:23:01;10.45;;;4.22;;
68214;SDS011;55036;52.138;5.236;2023-01-28T16:25:30;5.50;;;3.53;;
68214;SDS011;55036;52.138;5.236;2023-01-28T16:27:59;9.63;;;3.97;;
68214;SDS011;55036;52.138;5.236;2023-01-28T16:30:26;5.30;;;3.30;;
68214;SDS011;55036;52.138;5.236;2023-01-28T16:32:53;9.07;;;5.00;;
68214;SDS011;55036;52.138;5.236;2023-01-28T16:35:22;12.63;;;5.55;;
68214;SDS011;55036;52.138;5.236;2023-01-28T16:38:07;13.35;;;6.70;;
68214;SDS011;55036;52.138;5.236;2023-01-28T16:40:34;16.48;;;8.55;;
68214;SDS011;55036;52.138;5.236;2023-01-28T16:43:03;12.75;;;6.75;;
68214;SDS011;55036;52.138;5.236;2023-01-28T16:45:30;10.80;;;6.65;;
68214;SDS011;55036;52.138;5.236;2023-01-28T16:47:57;10.30;;;6.85;;
68214;SDS011;55036;52.138;5.236;2023-01-28T16:50:23;10.27;;;6.40;;
68214;SDS011;55036;52.138;5.236;2023-01-28T16:52:50;9.85;;;6.55;;
68214;SDS011;55036;52.138;5.236;2023-01-28T16:55:20;10.07;;;5.78;;
68214;SDS011;55036;52.138;5.236;2023-01-28T16:57:48;9.77;;;5.75;;
68214;SDS011;55036;52.138;5.236;2023-01-28T17:00:19;10.40;;;6.10;;
68214;SDS011;55036;52.138;5.236;2023-01-28T17:02:48;8.27;;;5.47;;
68214;SDS011;55036;52.138;5.236;2023-01-28T17:05:15;8.80;;;6.00;;
68214;SDS011;55036;52.138;5.236;2023-01-28T17:07:44;10.98;;;7.15;;
68214;SDS011;55036;52.138;5.236;2023-01-28T17:10:14;12.07;;;7.28;;
68214;SDS011;55036;52.138;5.236;2023-01-28T17:12:42;12.02;;;8.13;;